Time;durP1;ratioP1;P1;durP2;ratioP2;P2;SDS_P1;SDS_P2;PMS_P1;PMS_P2;Temp;Humidity;BMP_temperature;BMP_pressure;BME280_temperature;BME280_humidity;BME280_pressure;Samples;Min_cycle;Max_cycle;Signal;HPM_P1;HPM_P2
2024/01/05 08:32:28;;;;;;;4.70;1.60;;;3.60;91.90;;;;;;5098022;27;21136;-80
2024/01/05 08:34:55;;;;;;;3.10;1.90;;;3.60;92.10;;;;;;5054013;28;20194;-88
2024/01/05 08:37:22;;;;;;;4.77;1.93;;;3.70;92.10;;;;;;5051310;28;20198;-84
2024/01/05 08:39:48;;;;;;;5.90;2.20;;;3.80;91.10;;;;;;5051328;28;20193;-85
2024/01/05 08:42:15;;;;;;;2.23;1.90;;;3.90;91.20;;;;;;5049282;28;20197;-89
2024/01/05 08:44:42;;;;;;;3.37;1.80;;;4.00;91.70;;;;;;5048580;28;20824;-90
2024/01/05 08:47:11;;;;;;;2.83;1.80;;;4.20;90.90;;;;;;5049217;28;20280;-87
2024/01/05 08:49:39;;;;;;;3.47;2.10;;;4.30;90.90;;;;;;5049247;28;20209;-87
2024/01/05 08:52:06;;;;;;;2.87;1.90;;;4.40;90.70;;;;;;5051833;28;20232;-87
2024/01/05 08:54:33;;;;;;;2.57;1.83;;;4.50;89.00;;;;;;5050658;28;20199;-88
2024/01/05 08:57:00;;;;;;;3.97;1.70;;;4.50;87.90;;;;;;5053574;28;20260;-87
2024/01/05 08:59:27;;;;;;;2.93;1.90;;;4.60;88.60;;;;;;5048941;28;20208;-87
2024/01/05 09:01:55;;;;;;;3.43;2.00;;;4.60;87.30;;;;;;5049058;28;20209;-87
2024/01/05 09:04:21;;;;;;;3.72;1.77;;;4.70;88.80;;;;;;5046510;28;20267;-87
2024/01/05 09:06:50;;;;;;;2.57;1.80;;;4.90;84.40;;;;;;5047223;28;20216;-87
2024/01/05 09:09:16;;;;;;;2.20;1.60;;;5.10;82.00;;;;;;5042186;28;20205;-87
2024/01/05 09:11:43;;;;;;;1.83;1.63;;;5.20;79.20;;;;;;5039024;28;20670;-86
2024/01/05 09:14:10;;;;;;;3.30;1.83;;;5.30;79.60;;;;;;5042758;28;20200;-88
2024/01/05 09:16:39;;;;;;;1.88;1.50;;;5.30;79.00;;;;;;5047003;28;20569;-87
2024/01/05 09:19:06;;;;;;;6.30;2.00;;;5.50;78.70;;;;;;5048099;28;20205;-87
2024/01/05 09:21:33;;;;;;;3.58;2.40;;;5.70;78.80;;;;;;5041154;28;20210;-87
2024/01/05 09:24:01;;;;;;;4.70;2.10;;;5.90;78.60;;;;;;5048007;28;20548;-89
2024/01/05 09:26:28;;;;;;;2.35;1.90;;;6.00;75.80;;;;;;5047520;28;20217;-89
2024/01/05 09:28:55;;;;;;;2.88;1.63;;;6.20;76.30;;;;;;5045968;28;20217;-89
2024/01/05 09:31:23;;;;;;;3.97;2.20;;;6.20;72.90;;;;;;5045418;28;20904;-88
2024/01/05 09:33:50;;;;;;;2.97;1.50;;;6.20;71.00;;;;;;5047320;28;20671;-87
2024/01/05 09:36:17;;;;;;;3.15;1.92;;;6.30;70.10;;;;;;5046651;28;20557;-88
2024/01/05 09:38:43;;;;;;;2.38;1.70;;;6.40;65.30;;;;;;5050173;28;20252;-87
2024/01/05 09:41:13;;;;;;;2.97;2.00;;;6.40;65.90;;;;;;5048984;28;20285;-88
2024/01/05 09:43:42;;;;;;;2.50;1.80;;;6.30;66.80;;;;;;5035712;28;20289;-88
2024/01/05 09:46:09;;;;;;;3.08;1.85;;;6.30;68.30;;;;;;5032074;28;20195;-88
2024/01/05 09:48:39;;;;;;;2.38;1.70;;;6.30;69.80;;;;;;5027157;28;20604;-89
2024/01/05 09:51:08;;;;;;;2.47;1.77;;;6.60;65.70;;;;;;5034700;28;20226;-88
2024/01/05 09:53:35;;;;;;;3.42;1.92;;;6.60;66.30;;;;;;5027023;28;20206;-88
2024/01/05 09:56:10;;;;;;;4.00;1.73;;;6.70;66.30;;;;;;5032784;28;20202;-89
2024/01/05 09:58:39;;;;;;;2.95;1.60;;;6.70;64.50;;;;;;5033185;28;20202;-86
2024/01/05 10:01:17;;;;;;;2.70;1.85;;;6.90;63.90;;;;;;5029224;28;20206;-89
2024/01/05 10:03:45;;;;;;;3.15;1.80;;;6.80;60.90;;;;;;5030511;28;20199;-88
2024/01/05 10:06:17;;;;;;;4.15;1.77;;;7.00;58.90;;;;;;5034822;28;20199;-89
2024/01/05 10:08:44;;;;;;;5.90;2.53;;;6.90;59.50;;;;;;5035824;28;20233;-90
2024/01/05 10:11:12;;;;;;;5.93;3.40;;;7.10;62.90;;;;;;5037887;28;20964;-90
2024/01/05 10:13:54;;;;;;;7.63;3.67;;;7.20;62.30;;;;;;5040956;28;20695;-89
2024/01/05 10:16:24;;;;;;;3.35;2.50;;;7.20;59.30;;;;;;5032064;28;20831;-90
2024/01/05 10:18:51;;;;;;;4.75;2.22;;;7.40;57.30;;;;;;5029131;28;20209;-90
2024/01/05 10:21:18;;;;;;;5.38;3.08;;;7.50;56.00;;;;;;5033728;28;20207;-90
2024/01/05 10:23:45;;;;;;;3.78;2.00;;;7.60;52.60;;;;;;5036411;28;20233;-89
2024/01/05 10:26:16;;;;;;;3.75;2.25;;;7.40;53.00;;;;;;5013852;28;20201;-89
2024/01/05 10:28:48;;;;;;;4.85;2.20;;;7.40;54.60;;;;;;5028452;28;20558;-90
2024/01/05 10:31:16;;;;;;;6.20;2.25;;;7.30;53.40;;;;;;5031374;28;20237;-89
2024/01/05 10:33:51;;;;;;;3.92;2.55;;;7.10;56.40;;;;;;5018853;28;20202;-88
2024/01/05 10:36:21;;;;;;;2.60;2.05;;;7.20;57.10;;;;;;5033105;28;20206;-90
2024/01/05 10:38:49;;;;;;;4.47;2.40;;;7.30;54.70;;;;;;5036155;28;20197;-89
2024/01/05 10:41:17;;;;;;;3.72;2.63;;;7.40;56.30;;;;;;5037385;28;20217;-90
2024/01/05 10:43:47;;;;;;;3.50;2.38;;;7.50;58.30;;;;;;5038786;28;20692;-88
2024/01/05 10:46:17;;;;;;;5.45;2.65;;;7.50;55.40;;;;;;5031348;28;20202;-89
2024/01/05 10:48:45;;;;;;;6.00;2.50;;;7.50;54.80;;;;;;5033408;28;20670;-90
2024/01/05 10:51:13;;;;;;;4.13;2.28;;;7.60;55.30;;;;;;5032706;28;20219;-89
2024/01/05 10:53:40;;;;;;;6.47;1.90;;;7.60;55.20;;;;;;5036142;28;20200;-89
2024/01/05 10:56:08;;;;;;;3.25;2.05;;;7.60;54.00;;;;;;5030228;28;20209;-89
2024/01/05 10:58:34;;;;;;;3.47;2.20;;;7.70;55.30;;;;;;5029810;28;20202;-90
2024/01/05 11:01:03;;;;;;;2.58;1.75;;;7.70;55.00;;;;;;5016541;28;20210;-90
2024/01/05 11:03:36;;;;;;;4.68;2.50;;;7.70;55.20;;;;;;5031189;28;20246;-89
2024/01/05 11:06:08;;;;;;;2.60;1.95;;;7.60;55.50;;;;;;5028533;28;20199;-90
2024/01/05 11:08:44;;;;;;;3.20;2.10;;;7.50;54.50;;;;;;5031015;28;20678;-89
2024/01/05 11:11:22;;;;;;;4.70;2.20;;;7.40;58.50;;;;;;5034425;28;20224;-90
2024/01/05 11:14:13;;;;;;;3.65;2.08;;;7.40;61.30;;;;;;5029773;28;20203;-90
2024/01/05 11:17:06;;;;;;;6.68;2.20;;;7.50;59.90;;;;;;5027323;28;20669;-89
2024/01/05 11:19:49;;;;;;;3.92;2.13;;;7.60;57.90;;;;;;5033829;28;20198;-90
2024/01/05 11:22:23;;;;;;;5.20;2.40;;;7.60;61.30;;;;;;5047000;28;20252;-90
2024/01/05 11:24:51;;;;;;;5.18;2.33;;;7.60;64.20;;;;;;5041030;28;20207;-89
2024/01/05 11:27:28;;;;;;;4.18;2.50;;;7.60;62.10;;;;;;5032477;28;20206;-90
2024/01/05 11:29:56;;;;;;;7.35;2.50;;;7.60;60.50;;;;;;5032305;28;20198;-90
2024/01/05 11:32:39;;;;;;;3.63;2.35;;;7.60;59.10;;;;;;5031933;28;20313;-89
2024/01/05 11:35:50;;;;;;;4.38;2.10;;;7.70;55.90;;;;;;5031885;28;20186;-89
2024/01/05 11:38:29;;;;;;;4.50;1.98;;;7.90;53.60;;;;;;5030496;28;20280;-91
2024/01/05 11:40:56;;;;;;;5.10;1.70;;;8.10;49.10;;;;;;5035427;28;20198;-88
2024/01/05 11:43:35;;;;;;;3.15;1.77;;;8.40;43.50;;;;;;5031475;28;20293;-89
2024/01/05 11:46:02;;;;;;;2.60;1.92;;;8.50;43.40;;;;;;5032511;28;20274;-90
2024/01/05 11:48:51;;;;;;;5.25;2.17;;;8.70;46.60;;;;;;5026816;28;20209;-90
2024/01/05 11:51:20;;;;;;;3.42;2.13;;;8.80;47.40;;;;;;5023618;28;20455;-90
2024/01/05 11:53:49;;;;;;;3.30;1.92;;;8.80;43.50;;;;;;5029055;28;20199;-90
2024/01/05 11:56:21;;;;;;;4.35;2.20;;;8.80;47.40;;;;;;5032805;28;20285;-90
2024/01/05 11:58:49;;;;;;;4.45;2.58;;;8.70;51.90;;;;;;5033206;28;20212;-92
2024/01/05 12:01:22;;;;;;;4.88;2.13;;;8.60;47.70;;;;;;5031750;28;20203;-90
2024/01/05 12:03:55;;;;;;;5.70;2.10;;;8.70;47.20;;;;;;5032287;28;20202;-91
2024/01/05 12:06:22;;;;;;;3.10;1.88;;;8.70;41.90;;;;;;5027083;28;20198;-87
2024/01/05 12:08:52;;;;;;;3.45;1.80;;;8.90;43.80;;;;;;5031824;28;20242;-89
2024/01/05 12:11:21;;;;;;;4.03;1.77;;;9.20;42.30;;;;;;5011842;28;20257;-88
2024/01/05 12:13:48;;;;;;;4.13;2.30;;;9.40;42.70;;;;;;5032569;28;20671;-87
2024/01/05 12:16:24;;;;;;;4.70;1.90;;;9.40;40.30;;;;;;5031803;28;20241;-88
2024/01/05 12:18:53;;;;;;;4.38;1.90;;;9.40;41.90;;;;;;5025436;28;20202;-89
2024/01/05 12:21:21;;;;;;;2.15;1.90;;;9.50;39.60;;;;;;5035309;28;20202;-93
2024/01/05 12:23:53;;;;;;;3.92;1.95;;;9.70;35.90;;;;;;5028373;28;20245;-91
2024/01/05 12:26:21;;;;;;;2.30;1.70;;;9.80;34.50;;;;;;5037219;28;20202;-92
2024/01/05 12:28:53;;;;;;;4.10;1.77;;;9.70;34.40;;;;;;5035441;28;20582;-92
2024/01/05 12:31:25;;;;;;;3.45;1.85;;;9.70;33.80;;;;;;5034430;28;20218;-91
2024/01/05 12:36:48;;;;;;;4.45;1.80;;;9.70;32.50;;;;;;5030721;28;20232;-89
2024/01/05 12:39:20;;;;;;;2.58;1.67;;;9.80;33.80;;;;;;5034774;28;20559;-90
2024/01/05 12:41:48;;;;;;;2.00;1.65;;;9.70;33.10;;;;;;5025999;28;20277;-87
2024/01/05 12:44:20;;;;;;;2.67;1.70;;;9.60;33.30;;;;;;5031106;28;20542;-90
2024/01/05 12:46:49;;;;;;;3.65;2.28;;;9.60;32.60;;;;;;5036679;28;20320;-88
2024/01/05 12:49:24;;;;;;;3.55;2.45;;;9.40;33.50;;;;;;5028204;28;20294;-87
2024/01/05 12:51:55;;;;;;;3.60;2.35;;;9.30;34.60;;;;;;5033856;28;20299;-88
2024/01/05 12:54:25;;;;;;;4.53;1.98;;;9.20;35.60;;;;;;5038031;28;20202;-86
2024/01/05 12:56:54;;;;;;;3.40;1.77;;;9.10;35.30;;;;;;5036874;28;20705;-87
2024/01/05 12:59:25;;;;;;;4.45;2.00;;;9.10;38.10;;;;;;5036486;28;20203;-88
2024/01/05 13:02:07;;;;;;;5.00;2.20;;;9.10;37.70;;;;;;5024724;28;20206;-88
2024/01/05 13:04:42;;;;;;;4.22;1.80;;;9.00;38.80;;;;;;5025667;28;20222;-87
2024/01/05 13:07:11;;;;;;;4.05;2.00;;;9.00;38.70;;;;;;5031614;28;20204;-86
2024/01/05 13:09:43;;;;;;;2.63;1.70;;;9.00;38.50;;;;;;5014744;28;20671;-87
2024/01/05 13:12:10;;;;;;;2.60;1.75;;;9.00;41.50;;;;;;5034521;28;20682;-87
2024/01/05 13:14:43;;;;;;;4.53;2.28;;;9.00;40.80;;;;;;5032951;28;20199;-86
2024/01/05 13:17:11;;;;;;;5.38;2.38;;;8.90;42.20;;;;;;5029113;28;20198;-87
2024/01/05 13:19:40;;;;;;;3.05;1.80;;;9.00;40.70;;;;;;5035022;28;20554;-94
2024/01/05 13:22:09;;;;;;;3.05;2.17;;;9.00;41.10;;;;;;5033481;28;20233;-86
2024/01/05 13:24:36;;;;;;;2.80;2.05;;;8.90;44.60;;;;;;5020346;28;20261;-87
2024/01/05 13:27:12;;;;;;;2.35;1.60;;;8.80;47.40;;;;;;5034080;28;20282;-88
2024/01/05 13:29:49;;;;;;;2.55;1.90;;;8.90;47.40;;;;;;5041777;28;20206;-86
2024/01/05 13:32:23;;;;;;;6.53;1.92;;;9.00;45.30;;;;;;5033829;28;20218;-87
2024/01/05 13:34:52;;;;;;;2.25;1.80;;;9.00;47.50;;;;;;5029580;28;20289;-88
2024/01/05 13:37:24;;;;;;;5.32;1.80;;;8.90;48.20;;;;;;5031637;28;20220;-89
2024/01/05 13:39:54;;;;;;;3.47;2.10;;;8.80;50.80;;;;;;5029164;28;20205;-90
2024/01/05 13:42:25;;;;;;;2.35;1.80;;;8.70;54.80;;;;;;5032857;28;20293;-88
2024/01/05 13:44:52;;;;;;;5.57;2.40;;;8.80;55.30;;;;;;5032202;28;20241;-88
2024/01/05 13:47:20;;;;;;;3.75;2.10;;;8.80;57.60;;;;;;5015527;28;20258;-87
2024/01/05 13:49:51;;;;;;;5.07;2.78;;;8.70;62.90;;;;;;5028673;28;20681;-87
2024/01/05 13:52:19;;;;;;;5.95;3.10;;;8.60;70.70;;;;;;5033637;28;20214;-88
2024/01/05 13:54:46;;;;;;;6.25;2.72;;;8.50;73.50;;;;;;5031513;28;20198;-87
2024/01/05 13:57:22;;;;;;;4.55;2.92;;;8.30;78.00;;;;;;5029681;28;20309;-88
2024/01/05 13:59:49;;;;;;;5.72;2.60;;;8.30;82.50;;;;;;5031145;28;20210;-86
2024/01/05 14:02:20;;;;;;;4.38;2.40;;;8.20;85.50;;;;;;5037231;28;20202;-86
2024/01/05 14:04:48;;;;;;;6.18;2.80;;;8.10;89.00;;;;;;5033452;28;21390;-87
2024/01/05 14:07:26;;;;;;;3.63;2.22;;;8.00;90.40;;;;;;5033945;28;20217;-89
2024/01/05 14:09:53;;;;;;;8.57;2.17;;;7.90;91.90;;;;;;5036769;28;20345;-88
2024/01/05 14:12:22;;;;;;;5.57;2.22;;;7.80;92.40;;;;;;5033231;28;20223;-90
2024/01/05 14:14:58;;;;;;;6.22;2.33;;;7.80;92.70;;;;;;5035890;28;20203;-89
2024/01/05 14:39:49;;;;;;;8.02;2.92;;;7.50;98.20;;;;;;5057072;28;20205;-90
2024/01/05 14:44:59;;;;;;;7.30;3.15;;;7.40;99.60;;;;;;5054716;28;20728;-89
2024/01/05 14:47:37;;;;;;;7.38;3.20;;;7.40;99.80;;;;;;5055416;28;20643;-91
2024/01/05 14:50:05;;;;;;;4.85;3.05;;;7.30;99.90;;;;;;5054966;28;20296;-91
2024/01/05 14:52:38;;;;;;;5.53;2.83;;;7.30;99.90;;;;;;5038100;28;20256;-90
2024/01/05 14:58:18;;;;;;;5.57;2.80;;;7.30;99.90;;;;;;4975196;28;20212;-88
2024/01/05 15:00:46;;;;;;;5.15;2.60;;;7.40;99.90;;;;;;5044165;28;20202;-90
2024/01/05 15:03:19;;;;;;;5.70;2.40;;;7.40;99.40;;;;;;5053818;28;20233;-89
2024/01/05 15:05:46;;;;;;;5.93;2.80;;;7.40;98.90;;;;;;5030330;28;20228;-88
2024/01/05 15:14:40;;;;;;;3.13;2.00;;;7.50;98.20;;;;;;5056306;28;20194;-93
2024/01/05 15:19:55;;;;;;;4.82;1.95;;;7.60;98.20;;;;;;5048509;28;20194;-91
2024/01/05 15:22:23;;;;;;;4.05;2.50;;;7.60;98.10;;;;;;5036205;28;20296;-90
2024/01/05 15:24:50;;;;;;;4.90;2.40;;;7.50;98.50;;;;;;5054445;28;20289;-89
2024/01/05 15:27:17;;;;;;;7.00;2.42;;;7.50;98.20;;;;;;5035895;28;20699;-94
2024/01/05 15:29:45;;;;;;;4.18;2.40;;;7.40;98.40;;;;;;5053980;28;20209;-91
2024/01/05 15:32:12;;;;;;;5.28;2.40;;;7.40;98.20;;;;;;5029647;28;20647;-90
2024/01/05 15:34:52;;;;;;;7.60;2.38;;;7.30;98.40;;;;;;5056617;28;20209;-91
2024/01/05 15:37:20;;;;;;;3.70;2.10;;;7.30;98.60;;;;;;5033336;28;20228;-91
2024/01/05 15:39:50;;;;;;;13.68;9.63;;;7.40;98.60;;;;;;5052840;28;20237;-90
2024/01/05 15:42:22;;;;;;;12.98;8.25;;;7.50;99.20;;;;;;5039767;28;20205;-92
2024/01/05 15:44:55;;;;;;;4.80;2.75;;;7.60;99.80;;;;;;5022526;28;20209;-93
2024/01/05 15:47:22;;;;;;;4.40;2.45;;;7.40;99.60;;;;;;5033404;28;20546;-92
2024/01/05 15:49:50;;;;;;;6.65;2.90;;;7.30;99.90;;;;;;5025439;28;20201;-92
2024/01/05 15:52:17;;;;;;;5.90;2.65;;;7.20;99.90;;;;;;5035646;28;20666;-92
2024/01/05 15:54:44;;;;;;;4.20;2.85;;;7.10;99.90;;;;;;5052313;28;20248;-95
2024/01/05 15:57:15;;;;;;;6.53;3.10;;;7.10;99.90;;;;;;5044629;28;20208;-96
2024/01/05 16:00:10;;;;;;;7.88;2.92;;;7.00;99.90;;;;;;5042410;28;20547;-96
2024/01/05 16:02:38;;;;;;;6.45;3.03;;;7.00;99.90;;;;;;5061039;28;20206;-91
2024/01/05 16:05:09;;;;;;;6.22;2.70;;;6.90;99.90;;;;;;5055224;28;20224;-93
2024/01/05 16:07:51;;;;;;;5.55;2.88;;;6.90;99.90;;;;;;5053311;28;20202;-92
2024/01/05 16:10:18;;;;;;;6.15;2.95;;;6.90;99.90;;;;;;5053749;28;20201;-93
2024/01/05 16:16:10;;;;;;;7.25;3.22;;;7.00;99.90;;;;;;5048128;28;20194;-93
2024/01/05 16:19:00;;;;;;;5.57;3.15;;;7.10;99.90;;;;;;5025542;28;20205;-92
2024/01/05 16:21:28;;;;;;;8.93;3.30;;;7.10;99.90;;;;;;5034674;28;20210;-95
2024/01/05 16:23:56;;;;;;;4.50;3.50;;;7.20;99.90;;;;;;5031218;28;20202;-92
2024/01/05 16:26:24;;;;;;;8.38;5.00;;;7.10;99.90;;;;;;5050037;28;20284;-92
2024/01/05 16:28:51;;;;;;;5.78;3.17;;;6.90;99.90;;;;;;5038462;28;20217;-92
2024/01/05 16:31:21;;;;;;;4.47;3.03;;;6.90;99.90;;;;;;5052581;28;20206;-92
2024/01/05 16:33:49;;;;;;;4.47;2.72;;;6.80;99.90;;;;;;5053660;28;20217;-93
2024/01/05 16:36:16;;;;;;;8.52;3.70;;;7.00;99.90;;;;;;5053426;28;20622;-91
2024/01/05 16:38:43;;;;;;;5.55;3.97;;;7.10;99.90;;;;;;5056451;28;20201;-93
2024/01/05 16:41:10;;;;;;;4.70;3.40;;;7.10;99.90;;;;;;5053319;28;20253;-92
2024/01/05 16:43:37;;;;;;;6.38;3.72;;;6.90;99.90;;;;;;5067972;28;20205;-93
2024/01/05 16:46:04;;;;;;;5.95;4.18;;;6.70;99.90;;;;;;5049629;28;20198;-92
2024/01/05 16:48:37;;;;;;;5.90;4.03;;;6.70;99.90;;;;;;5048173;28;20201;-95
2024/01/05 16:51:04;;;;;;;5.50;3.50;;;6.70;99.90;;;;;;5040007;28;20198;-96
2024/01/05 16:53:37;;;;;;;6.95;3.65;;;6.70;99.90;;;;;;5039792;28;20233;-96
2024/01/05 16:59:49;;;;;;;6.85;3.50;;;6.80;99.90;;;;;;5058185;28;20181;-93
2024/01/05 17:02:20;;;;;;;5.57;3.40;;;6.70;99.90;;;;;;5057935;28;20194;-93
2024/01/05 17:04:50;;;;;;;8.13;3.03;;;6.60;99.90;;;;;;5037674;28;20221;-95
2024/01/05 17:07:25;;;;;;;5.97;3.28;;;6.60;99.90;;;;;;5023154;28;20284;-95
2024/01/05 17:09:55;;;;;;;5.70;3.42;;;6.60;99.90;;;;;;5054183;28;20673;-95
2024/01/05 17:12:22;;;;;;;5.45;3.03;;;6.60;99.90;;;;;;5047146;28;20205;-92
2024/01/05 17:14:49;;;;;;;8.43;3.55;;;6.60;99.90;;;;;;5040779;28;20601;-89
2024/01/05 17:17:16;;;;;;;3.85;2.70;;;6.50;99.90;;;;;;5047334;28;20198;-87
2024/01/05 17:20:04;;;;;;;6.53;3.30;;;6.50;99.90;;;;;;5053241;28;20606;-87
2024/01/05 17:22:31;;;;;;;5.97;3.60;;;6.50;99.90;;;;;;5050790;28;20275;-88
2024/01/05 17:24:58;;;;;;;5.03;3.42;;;6.60;99.90;;;;;;5052142;28;20560;-88
2024/01/05 17:27:25;;;;;;;4.28;3.33;;;6.60;99.90;;;;;;5051540;28;21013;-89
2024/01/05 17:29:52;;;;;;;6.43;3.38;;;6.60;99.90;;;;;;5047505;28;20205;-90
2024/01/05 17:32:19;;;;;;;6.43;3.00;;;6.50;99.90;;;;;;5044943;28;20205;-88
2024/01/05 17:34:46;;;;;;;7.68;3.42;;;6.50;99.90;;;;;;5018630;28;20228;-89
2024/01/05 17:37:15;;;;;;;5.55;3.15;;;6.50;99.90;;;;;;5056827;28;20213;-91
2024/01/05 17:39:42;;;;;;;4.72;3.28;;;6.50;99.90;;;;;;5035281;28;20197;-88
2024/01/05 17:42:11;;;;;;;5.15;3.03;;;6.40;99.90;;;;;;5053354;28;20197;-90
2024/01/05 17:44:38;;;;;;;3.65;2.90;;;6.40;99.90;;;;;;5036121;28;20205;-86
2024/01/05 17:47:05;;;;;;;5.45;3.28;;;6.40;99.90;;;;;;5057931;28;20246;-89
2024/01/05 17:49:32;;;;;;;13.40;7.38;;;6.50;99.90;;;;;;5052998;28;20654;-89
2024/01/05 17:51:59;;;;;;;6.53;4.15;;;6.50;99.90;;;;;;5053373;28;20609;-88
2024/01/05 17:54:28;;;;;;;6.20;4.50;;;6.50;99.90;;;;;;5035195;28;20221;-87
2024/01/05 17:57:02;;;;;;;6.85;4.70;;;6.50;99.90;;;;;;5031477;28;20264;-89
2024/01/05 17:59:28;;;;;;;7.45;5.10;;;6.60;99.90;;;;;;5036043;28;20312;-88
2024/01/05 18:01:59;;;;;;;7.82;5.25;;;6.70;99.90;;;;;;5054855;28;20280;-89
2024/01/05 18:04:26;;;;;;;8.70;4.57;;;6.70;99.90;;;;;;5049048;28;20296;-91
2024/01/05 18:06:54;;;;;;;8.43;5.63;;;6.90;99.90;;;;;;5051681;28;20208;-90
2024/01/05 18:09:21;;;;;;;8.30;6.43;;;7.00;99.90;;;;;;5036917;28;20202;-89
2024/01/05 18:11:50;;;;;;;11.35;5.93;;;6.90;99.90;;;;;;5034299;28;20245;-89
2024/01/05 18:14:18;;;;;;;11.80;6.13;;;7.00;99.90;;;;;;5053812;28;20221;-88
2024/01/05 18:16:45;;;;;;;10.77;7.57;;;7.00;99.90;;;;;;5030713;28;21506;-89
2024/01/05 18:19:13;;;;;;;9.23;5.07;;;6.90;99.90;;;;;;5051552;28;20569;-87
2024/01/05 18:21:44;;;;;;;11.52;5.65;;;6.80;99.90;;;;;;5053891;28;20225;-90
2024/01/05 18:24:14;;;;;;;10.60;6.72;;;6.80;99.90;;;;;;5052707;28;20205;-89
2024/01/05 18:26:41;;;;;;;9.35;6.22;;;6.70;99.90;;;;;;5031332;28;21562;-87
2024/01/05 18:29:10;;;;;;;9.90;6.47;;;6.60;99.90;;;;;;5053062;28;20190;-88
2024/01/05 18:31:38;;;;;;;8.90;5.63;;;6.50;99.90;;;;;;5040164;28;20606;-88
2024/01/05 18:34:07;;;;;;;8.60;6.38;;;6.50;99.90;;;;;;5052176;28;20224;-89
2024/01/05 18:36:34;;;;;;;8.73;5.78;;;6.50;99.90;;;;;;5055101;28;20201;-88
2024/01/05 18:39:01;;;;;;;7.22;5.22;;;6.70;99.90;;;;;;5059776;28;20231;-88
2024/01/05 18:41:30;;;;;;;7.55;5.40;;;6.90;99.90;;;;;;5039711;28;20205;-89
2024/01/05 18:43:58;;;;;;;8.23;5.35;;;6.90;99.90;;;;;;5054148;28;20206;-88
2024/01/05 18:46:26;;;;;;;7.70;5.00;;;6.80;99.90;;;;;;5053648;28;20229;-88
2024/01/05 18:48:53;;;;;;;7.22;5.60;;;6.80;99.90;;;;;;5039582;28;20197;-88
2024/01/05 18:51:20;;;;;;;8.55;5.20;;;6.70;99.90;;;;;;5050183;28;20245;-91
2024/01/05 18:53:47;;;;;;;8.65;5.43;;;6.70;99.90;;;;;;5023883;28;20886;-91
2024/01/05 18:56:15;;;;;;;11.52;5.43;;;6.60;99.90;;;;;;5057909;28;20729;-87
2024/01/05 18:58:42;;;;;;;8.93;5.53;;;6.60;99.90;;;;;;5034688;28;20198;-90
2024/01/05 19:01:10;;;;;;;8.07;5.40;;;6.50;99.90;;;;;;5056577;28;20225;-92
2024/01/05 19:03:39;;;;;;;8.02;5.25;;;6.50;99.90;;;;;;5033313;28;20201;-92
2024/01/05 19:06:07;;;;;;;7.38;5.68;;;6.50;99.90;;;;;;5032440;28;20202;-91
2024/01/05 19:08:38;;;;;;;11.35;5.30;;;6.40;99.90;;;;;;5033744;28;20206;-91
2024/01/05 19:11:05;;;;;;;8.23;5.38;;;6.40;99.90;;;;;;5033959;28;20320;-90
2024/01/05 19:13:32;;;;;;;10.70;6.68;;;6.50;99.90;;;;;;5032558;28;20208;-90
2024/01/05 19:15:59;;;;;;;9.88;6.35;;;6.50;99.90;;;;;;5051234;28;20198;-90
2024/01/05 19:18:35;;;;;;;10.20;7.07;;;6.50;99.90;;;;;;5053524;28;20209;-90
2024/01/05 19:21:04;;;;;;;12.88;7.07;;;6.40;99.90;;;;;;5050646;28;20196;-89
2024/01/05 19:23:31;;;;;;;13.18;6.95;;;6.40;99.90;;;;;;5032695;28;20197;-91
2024/01/05 19:25:58;;;;;;;9.55;6.95;;;6.40;99.90;;;;;;5036888;28;20233;-90
2024/01/05 19:28:26;;;;;;;14.65;8.38;;;6.40;99.90;;;;;;5054236;28;20208;-91
2024/01/05 19:30:53;;;;;;;16.80;8.30;;;6.40;99.90;;;;;;5057757;28;20198;-90
2024/01/05 19:33:20;;;;;;;14.55;8.95;;;6.40;99.90;;;;;;5051587;28;20198;-90
2024/01/05 19:35:48;;;;;;;16.77;8.43;;;6.40;99.90;;;;;;5030508;28;20677;-90
2024/01/05 19:38:17;;;;;;;16.85;8.52;;;6.40;99.90;;;;;;5049899;28;20237;-90
2024/01/05 19:40:44;;;;;;;17.90;8.50;;;6.40;99.90;;;;;;5045455;28;20206;-90
2024/01/05 19:43:11;;;;;;;13.60;7.82;;;6.40;99.90;;;;;;5046489;28;20198;-90
2024/01/05 19:45:38;;;;;;;14.23;7.90;;;6.40;99.90;;;;;;5033718;28;20213;-90
2024/01/05 19:48:06;;;;;;;11.55;7.90;;;6.50;99.90;;;;;;5051589;28;20691;-91
2024/01/05 19:50:33;;;;;;;11.95;7.70;;;6.50;99.90;;;;;;5049294;28;20202;-90
2024/01/05 19:53:01;;;;;;;14.00;7.03;;;6.50;99.90;;;;;;5044078;28;20198;-90
2024/01/05 19:55:31;;;;;;;14.88;7.72;;;6.50;99.90;;;;;;5033098;28;20721;-90
2024/01/05 19:57:58;;;;;;;18.98;8.35;;;6.50;99.90;;;;;;5052165;28;20194;-90
2024/01/05 20:00:25;;;;;;;15.30;8.98;;;6.50;99.90;;;;;;5035405;28;20208;-91
2024/01/05 20:02:58;;;;;;;19.70;8.73;;;6.50;99.90;;;;;;5050243;28;20201;-90
2024/01/05 20:05:25;;;;;;;18.55;9.68;;;6.50;99.90;;;;;;5051786;28;20263;-90
2024/01/05 20:07:56;;;;;;;19.63;9.40;;;6.50;99.90;;;;;;5034375;28;20611;-90
2024/01/05 20:10:24;;;;;;;13.60;7.85;;;6.50;99.90;;;;;;5031942;28;20202;-89
2024/01/05 20:12:52;;;;;;;16.40;8.18;;;6.50;99.90;;;;;;5050050;28;20198;-90
2024/01/05 20:15:19;;;;;;;15.75;8.80;;;6.50;99.90;;;;;;5049454;28;20244;-90
2024/01/05 20:17:48;;;;;;;14.23;8.00;;;6.50;99.90;;;;;;5050295;28;20208;-89
2024/01/05 20:20:15;;;;;;;16.15;8.02;;;6.50;99.90;;;;;;5036872;28;20210;-89
2024/01/05 20:22:43;;;;;;;14.20;7.25;;;6.50;99.90;;;;;;5049783;28;20205;-90
2024/01/05 20:25:11;;;;;;;12.25;7.50;;;6.50;99.90;;;;;;5036115;28;20679;-89
2024/01/05 20:27:38;;;;;;;11.55;7.55;;;6.60;99.90;;;;;;5030907;28;20676;-89
2024/01/05 20:30:09;;;;;;;10.55;5.90;;;6.60;99.90;;;;;;5035322;28;20256;-89
2024/01/05 20:32:36;;;;;;;9.85;6.45;;;6.50;99.90;;;;;;5049520;28;20256;-90
2024/01/05 20:35:03;;;;;;;12.60;7.05;;;6.50;99.90;;;;;;5034473;28;20229;-89
2024/01/05 20:37:30;;;;;;;9.98;6.50;;;6.60;99.90;;;;;;5050404;28;20209;-89
2024/01/05 20:39:57;;;;;;;8.65;6.18;;;6.60;99.90;;;;;;5052417;28;20195;-89
2024/01/05 20:42:24;;;;;;;9.30;6.13;;;6.60;99.90;;;;;;5046900;28;20201;-89
2024/01/05 20:44:51;;;;;;;9.75;6.30;;;6.60;99.90;;;;;;5052112;28;20209;-91
2024/01/05 20:47:20;;;;;;;9.90;6.68;;;6.70;99.90;;;;;;5038992;28;20197;-90
2024/01/05 20:49:47;;;;;;;11.05;6.18;;;6.70;99.90;;;;;;5059250;28;20293;-90
2024/01/05 20:52:14;;;;;;;9.27;6.47;;;6.70;99.90;;;;;;5033474;28;20201;-90
2024/01/05 20:54:41;;;;;;;9.10;6.68;;;6.70;99.90;;;;;;5049836;28;20284;-90
2024/01/05 20:57:09;;;;;;;9.30;6.47;;;6.70;99.90;;;;;;5054790;28;20220;-90
2024/01/05 20:59:38;;;;;;;10.57;6.90;;;6.70;99.90;;;;;;5053191;28;20190;-89
2024/01/05 21:02:06;;;;;;;9.57;7.10;;;6.60;99.90;;;;;;5053240;28;20210;-89
2024/01/05 21:04:35;;;;;;;8.38;6.65;;;6.60;99.90;;;;;;5035654;28;20221;-90
2024/01/05 21:07:04;;;;;;;11.50;7.72;;;6.60;99.90;;;;;;5034307;28;20194;-89
2024/01/05 21:09:31;;;;;;;9.25;7.40;;;6.70;99.90;;;;;;5054368;28;20228;-89
2024/01/05 21:14:46;;;;;;;10.25;7.25;;;6.60;99.90;;;;;;5032169;28;20678;-89
2024/01/05 21:17:13;;;;;;;11.10;7.20;;;6.60;99.90;;;;;;5052804;28;20202;-89
2024/01/05 21:19:42;;;;;;;9.18;5.90;;;6.60;99.90;;;;;;5034286;28;20669;-90
2024/01/05 21:22:08;;;;;;;7.95;5.47;;;6.80;99.90;;;;;;5043218;28;20323;-89
2024/01/05 21:24:40;;;;;;;8.52;5.15;;;6.70;99.90;;;;;;5056852;28;20655;-90
2024/01/05 21:27:09;;;;;;;9.95;5.32;;;6.70;99.90;;;;;;5051123;28;20668;-89
2024/01/05 21:29:41;;;;;;;8.77;5.40;;;6.70;99.90;;;;;;5052974;28;20271;-89
2024/01/05 21:32:08;;;;;;;8.18;5.20;;;6.80;99.90;;;;;;5044053;28;20238;-89
2024/01/05 21:34:39;;;;;;;7.32;5.55;;;6.90;99.90;;;;;;5047936;28;20309;-89
2024/01/05 21:37:08;;;;;;;7.97;5.68;;;7.00;99.90;;;;;;5050346;28;20297;-89
2024/01/05 21:39:35;;;;;;;9.27;5.82;;;6.90;99.90;;;;;;5019996;28;20210;-90
2024/01/05 21:42:02;;;;;;;9.52;6.03;;;6.80;99.90;;;;;;5057105;28;20256;-89
2024/01/05 21:44:28;;;;;;;6.20;5.18;;;6.80;99.90;;;;;;5051291;28;20309;-90
2024/01/05 21:46:55;;;;;;;7.28;5.32;;;6.90;99.90;;;;;;5054015;28;20205;-90
2024/01/05 21:49:24;;;;;;;6.80;5.10;;;6.90;99.90;;;;;;5040353;28;20302;-90
2024/01/05 21:51:53;;;;;;;5.45;4.65;;;6.90;99.90;;;;;;5041058;28;20260;-89
2024/01/05 21:54:21;;;;;;;8.25;5.60;;;6.90;99.90;;;;;;5034167;28;20209;-89
2024/01/05 21:56:49;;;;;;;7.65;5.68;;;6.80;99.90;;;;;;5053502;28;20198;-91
2024/01/05 21:59:16;;;;;;;6.65;5.00;;;6.70;99.90;;;;;;5048531;28;20211;-90
2024/01/05 22:01:46;;;;;;;6.78;5.20;;;6.70;99.90;;;;;;5034115;28;20644;-90
2024/01/05 22:04:13;;;;;;;6.88;4.97;;;6.70;99.90;;;;;;5053556;28;20304;-91
2024/01/05 22:06:40;;;;;;;7.18;4.93;;;6.70;99.90;;;;;;5046305;28;20194;-91
2024/01/05 22:09:08;;;;;;;7.57;5.13;;;6.70;99.90;;;;;;5080079;28;20572;-91
2024/01/05 22:11:40;;;;;;;7.50;5.05;;;6.70;99.90;;;;;;5051780;28;20198;-91
2024/01/05 22:14:07;;;;;;;7.57;5.35;;;6.70;99.90;;;;;;5050621;28;20209;-91
2024/01/05 22:16:34;;;;;;;6.60;5.30;;;6.70;99.90;;;;;;5051486;28;20228;-92
2024/01/05 22:19:01;;;;;;;8.05;5.32;;;6.70;99.90;;;;;;5035042;28;20197;-91
2024/01/05 22:21:28;;;;;;;8.43;5.60;;;6.70;99.90;;;;;;5053959;28;20217;-92
2024/01/05 22:23:57;;;;;;;7.18;5.45;;;6.80;99.90;;;;;;5053515;28;20206;-91
2024/01/05 22:26:32;;;;;;;7.40;6.30;;;6.70;99.90;;;;;;5051819;28;20201;-92
2024/01/05 22:29:00;;;;;;;7.53;5.70;;;6.70;99.90;;;;;;5052678;28;20649;-91